sensor_id;sensor_type;location;lat;lon;timestamp;P1;durP1;ratioP1;P2;durP2;ratioP2
3261;SDS011;1643;47.746;9.000;2022-11-15T00:01:39;4.67;;;3.43;;
3261;SDS011;1643;47.746;9.000;2022-11-15T00:04:05;5.03;;;3.30;;
3261;SDS011;1643;47.746;9.000;2022-11-15T00:06:31;15.07;;;4.10;;
3261;SDS011;1643;47.746;9.000;2022-11-15T00:08:58;4.00;;;3.60;;
3261;SDS011;1643;47.746;9.000;2022-11-15T00:11:24;3.93;;;3.63;;
3261;SDS011;1643;47.746;9.000;2022-11-15T00:13:50;3.47;;;3.17;;
3261;SDS011;1643;47.746;9.000;2022-11-15T00:16:16;4.53;;;2.77;;
3261;SDS011;1643;47.746;9.000;2022-11-15T00:18:42;4.43;;;3.60;;
3261;SDS011;1643;47.746;9.000;2022-11-15T00:21:10;4.07;;;3.67;;
3261;SDS011;1643;47.746;9.000;2022-11-15T00:23:36;7.13;;;3.70;;
3261;SDS011;1643;47.746;9.000;2022-11-15T00:26:02;3.33;;;3.03;;
3261;SDS011;1643;47.746;9.000;2022-11-15T00:28:28;3.73;;;3.43;;
3261;SDS011;1643;47.746;9.000;2022-11-15T00:30:59;3.97;;;3.50;;
3261;SDS011;1643;47.746;9.000;2022-11-15T00:33:26;3.30;;;3.07;;
3261;SDS011;1643;47.746;9.000;2022-11-15T00:35:51;3.37;;;3.07;;
3261;SDS011;1643;47.746;9.000;2022-11-15T00:38:17;3.50;;;3.20;;
3261;SDS011;1643;47.746;9.000;2022-11-15T00:40:43;3.40;;;3.10;;
3261;SDS011;1643;47.746;9.000;2022-11-15T00:43:09;4.63;;;3.23;;
3261;SDS011;1643;47.746;9.000;2022-11-15T00:45:35;4.90;;;2.93;;
3261;SDS011;1643;47.746;9.000;2022-11-15T00:48:01;13.90;;;4.40;;
3261;SDS011;1643;47.746;9.000;2022-11-15T00:50:27;5.20;;;3.90;;
3261;SDS011;1643;47.746;9.000;2022-11-15T00:52:53;6.83;;;3.60;;
3261;SDS011;1643;47.746;9.000;2022-11-15T00:55:19;7.87;;;3.80;;
3261;SDS011;1643;47.746;9.000;2022-11-15T00:57:46;5.63;;;3.60;;
3261;SDS011;1643;47.746;9.000;2022-11-15T01:00:12;4.33;;;3.57;;
3261;SDS011;1643;47.746;9.000;2022-11-15T01:02:38;3.43;;;3.17;;
3261;SDS011;1643;47.746;9.000;2022-11-15T01:05:04;3.50;;;3.20;;
3261;SDS011;1643;47.746;9.000;2022-11-15T01:07:31;3.80;;;3.50;;
3261;SDS011;1643;47.746;9.000;2022-11-15T01:09:57;7.80;;;3.70;;
3261;SDS011;1643;47.746;9.000;2022-11-15T01:12:22;4.50;;;3.40;;
3261;SDS011;1643;47.746;9.000;2022-11-15T01:14:49;9.30;;;3.83;;
3261;SDS011;1643;47.746;9.000;2022-11-15T01:17:15;4.00;;;3.40;;
3261;SDS011;1643;47.746;9.000;2022-11-15T01:19:41;3.43;;;3.13;;
3261;SDS011;1643;47.746;9.000;2022-11-15T01:22:07;3.30;;;3.00;;
3261;SDS011;1643;47.746;9.000;2022-11-15T01:24:33;3.70;;;3.40;;
3261;SDS011;1643;47.746;9.000;2022-11-15T01:26:59;3.50;;;3.20;;
3261;SDS011;1643;47.746;9.000;2022-11-15T01:29:25;2.87;;;2.67;;
3261;SDS011;1643;47.746;9.000;2022-11-15T01:31:52;4.17;;;3.17;;
3261;SDS011;1643;47.746;9.000;2022-11-15T01:34:18;5.77;;;3.30;;
3261;SDS011;1643;47.746;9.000;2022-11-15T01:36:44;71.40;;;6.73;;
3261;SDS011;1643;47.746;9.000;2022-11-15T01:39:10;7.23;;;3.00;;
3261;SDS011;1643;47.746;9.000;2022-11-15T01:41:36;40.10;;;4.63;;
3261;SDS011;1643;47.746;9.000;2022-11-15T01:46:47;5.13;;;3.30;;
3261;SDS011;1643;47.746;9.000;2022-11-15T01:49:17;3.60;;;2.60;;
3261;SDS011;1643;47.746;9.000;2022-11-15T01:51:44;3.33;;;3.10;;
3261;SDS011;1643;47.746;9.000;2022-11-15T01:54:11;3.10;;;2.80;;
3261;SDS011;1643;47.746;9.000;2022-11-15T01:56:59;5.77;;;3.00;;
3261;SDS011;1643;47.746;9.000;2022-11-15T01:59:27;5.43;;;3.13;;
3261;SDS011;1643;47.746;9.000;2022-11-15T02:01:53;2.93;;;2.70;;
3261;SDS011;1643;47.746;9.000;2022-11-15T02:04:21;4.57;;;3.07;;
3261;SDS011;1643;47.746;9.000;2022-11-15T02:06:49;3.23;;;2.93;;
3261;SDS011;1643;47.746;9.000;2022-11-15T02:09:16;2.73;;;2.43;;
3261;SDS011;1643;47.746;9.000;2022-11-15T02:11:42;2.83;;;2.63;;
3261;SDS011;1643;47.746;9.000;2022-11-15T02:14:09;3.70;;;3.40;;
3261;SDS011;1643;47.746;9.000;2022-11-15T02:16:43;3.63;;;3.33;;
3261;SDS011;1643;47.746;9.000;2022-11-15T02:24:33;3.63;;;2.93;;
3261;SDS011;1643;47.746;9.000;2022-11-15T02:29:55;2.80;;;2.60;;
3261;SDS011;1643;47.746;9.000;2022-11-15T02:32:33;2.70;;;2.50;;
3261;SDS011;1643;47.746;9.000;2022-11-15T02:37:57;2.17;;;2.03;;
3261;SDS011;1643;47.746;9.000;2022-11-15T02:43:09;3.67;;;2.80;;
3261;SDS011;1643;47.746;9.000;2022-11-15T02:45:56;9.73;;;3.73;;
3261;SDS011;1643;47.746;9.000;2022-11-15T02:48:24;33.37;;;5.40;;
3261;SDS011;1643;47.746;9.000;2022-11-15T02:50:51;5.50;;;4.43;;
3261;SDS011;1643;47.746;9.000;2022-11-15T02:53:18;5.60;;;4.20;;
3261;SDS011;1643;47.746;9.000;2022-11-15T02:55:45;6.20;;;3.90;;
3261;SDS011;1643;47.746;9.000;2022-11-15T03:00:54;12.43;;;4.87;;
3261;SDS011;1643;47.746;9.000;2022-11-15T03:11:27;4.00;;;3.60;;
3261;SDS011;1643;47.746;9.000;2022-11-15T03:18:30;8.40;;;3.60;;
3261;SDS011;1643;47.746;9.000;2022-11-15T03:20:58;5.20;;;3.60;;
3261;SDS011;1643;47.746;9.000;2022-11-15T03:23:25;16.57;;;5.70;;
3261;SDS011;1643;47.746;9.000;2022-11-15T03:25:52;4.47;;;4.07;;
3261;SDS011;1643;47.746;9.000;2022-11-15T03:28:23;5.53;;;4.20;;
3261;SDS011;1643;47.746;9.000;2022-11-15T03:30:50;6.13;;;4.60;;
3261;SDS011;1643;47.746;9.000;2022-11-15T03:33:18;4.00;;;3.60;;
3261;SDS011;1643;47.746;9.000;2022-11-15T03:35:45;4.93;;;4.50;;
3261;SDS011;1643;47.746;9.000;2022-11-15T03:38:22;4.00;;;3.60;;
3261;SDS011;1643;47.746;9.000;2022-11-15T03:41:07;7.43;;;4.70;;
3261;SDS011;1643;47.746;9.000;2022-11-15T03:44:11;4.90;;;3.80;;
3261;SDS011;1643;47.746;9.000;2022-11-15T03:46:32;4.27;;;3.87;;
3261;SDS011;1643;47.746;9.000;2022-11-15T03:49:04;5.43;;;4.20;;
3261;SDS011;1643;47.746;9.000;2022-11-15T03:51:31;4.60;;;4.10;;
3261;SDS011;1643;47.746;9.000;2022-11-15T03:53:57;4.60;;;4.00;;
3261;SDS011;1643;47.746;9.000;2022-11-15T03:56:23;4.00;;;3.37;;
3261;SDS011;1643;47.746;9.000;2022-11-15T03:58:49;4.27;;;3.90;;
3261;SDS011;1643;47.746;9.000;2022-11-15T04:01:15;4.67;;;3.70;;
3261;SDS011;1643;47.746;9.000;2022-11-15T04:03:41;3.63;;;3.30;;
3261;SDS011;1643;47.746;9.000;2022-11-15T04:06:07;3.63;;;3.27;;
3261;SDS011;1643;47.746;9.000;2022-11-15T04:08:33;3.53;;;3.23;;
3261;SDS011;1643;47.746;9.000;2022-11-15T04:10:59;4.50;;;4.03;;
3261;SDS011;1643;47.746;9.000;2022-11-15T04:13:25;3.47;;;3.17;;
3261;SDS011;1643;47.746;9.000;2022-11-15T04:15:51;3.80;;;3.40;;
3261;SDS011;1643;47.746;9.000;2022-11-15T04:18:17;5.57;;;3.70;;
3261;SDS011;1643;47.746;9.000;2022-11-15T04:20:43;4.23;;;3.23;;
3261;SDS011;1643;47.746;9.000;2022-11-15T04:23:27;3.93;;;3.27;;
3261;SDS011;1643;47.746;9.000;2022-11-15T04:26:12;4.47;;;3.80;;
3261;SDS011;1643;47.746;9.000;2022-11-15T04:28:40;3.60;;;3.30;;
3261;SDS011;1643;47.746;9.000;2022-11-15T04:31:24;4.00;;;3.50;;
3261;SDS011;1643;47.746;9.000;2022-11-15T04:33:50;2.87;;;2.67;;
3261;SDS011;1643;47.746;9.000;2022-11-15T04:36:16;3.57;;;3.27;;
3261;SDS011;1643;47.746;9.000;2022-11-15T04:39:01;3.33;;;2.90;;
3261;SDS011;1643;47.746;9.000;2022-11-15T04:41:27;3.30;;;3.00;;
3261;SDS011;1643;47.746;9.000;2022-11-15T04:43:54;3.50;;;3.20;;
3261;SDS011;1643;47.746;9.000;2022-11-15T04:46:20;3.77;;;3.40;;
3261;SDS011;1643;47.746;9.000;2022-11-15T04:48:46;3.73;;;3.30;;
3261;SDS011;1643;47.746;9.000;2022-11-15T04:51:12;4.10;;;3.70;;
3261;SDS011;1643;47.746;9.000;2022-11-15T04:53:38;3.90;;;3.60;;
3261;SDS011;1643;47.746;9.000;2022-11-15T04:56:04;4.30;;;3.90;;
3261;SDS011;1643;47.746;9.000;2022-11-15T04:58:30;4.60;;;4.20;;
3261;SDS011;1643;47.746;9.000;2022-11-15T05:00:56;4.20;;;3.60;;
3261;SDS011;1643;47.746;9.000;2022-11-15T05:03:22;3.60;;;3.30;;
3261;SDS011;1643;47.746;9.000;2022-11-15T05:06:06;5.00;;;3.70;;
3261;SDS011;1643;47.746;9.000;2022-11-15T05:08:32;5.30;;;3.77;;
3261;SDS011;1643;47.746;9.000;2022-11-15T05:10:58;4.47;;;3.47;;
3261;SDS011;1643;47.746;9.000;2022-11-15T05:13:24;4.30;;;3.50;;
3261;SDS011;1643;47.746;9.000;2022-11-15T05:15:50;3.90;;;3.40;;
3261;SDS011;1643;47.746;9.000;2022-11-15T05:18:16;6.03;;;4.30;;
3261;SDS011;1643;47.746;9.000;2022-11-15T05:20:42;4.83;;;3.90;;
3261;SDS011;1643;47.746;9.000;2022-11-15T05:23:08;4.30;;;3.87;;
3261;SDS011;1643;47.746;9.000;2022-11-15T05:25:35;5.40;;;3.57;;
3261;SDS011;1643;47.746;9.000;2022-11-15T05:28:02;3.80;;;3.17;;
3261;SDS011;1643;47.746;9.000;2022-11-15T05:30:28;7.40;;;3.43;;
3261;SDS011;1643;47.746;9.000;2022-11-15T05:32:54;4.60;;;3.63;;
3261;SDS011;1643;47.746;9.000;2022-11-15T05:35:22;5.60;;;3.80;;
3261;SDS011;1643;47.746;9.000;2022-11-15T05:37:52;5.13;;;3.90;;
3261;SDS011;1643;47.746;9.000;2022-11-15T05:40:18;4.50;;;4.10;;
3261;SDS011;1643;47.746;9.000;2022-11-15T05:42:44;5.70;;;4.40;;
3261;SDS011;1643;47.746;9.000;2022-11-15T05:45:11;4.53;;;3.50;;
3261;SDS011;1643;47.746;9.000;2022-11-15T05:47:37;6.67;;;4.47;;
3261;SDS011;1643;47.746;9.000;2022-11-15T05:50:04;19.50;;;4.80;;
3261;SDS011;1643;47.746;9.000;2022-11-15T05:52:31;12.00;;;4.97;;
3261;SDS011;1643;47.746;9.000;2022-11-15T05:55:00;9.47;;;5.40;;
3261;SDS011;1643;47.746;9.000;2022-11-15T05:57:27;5.57;;;4.93;;
3261;SDS011;1643;47.746;9.000;2022-11-15T05:59:53;5.97;;;4.70;;
3261;SDS011;1643;47.746;9.000;2022-11-15T06:02:19;6.93;;;4.37;;
3261;SDS011;1643;47.746;9.000;2022-11-15T06:04:45;4.47;;;4.07;;
3261;SDS011;1643;47.746;9.000;2022-11-15T06:07:11;7.70;;;4.60;;
3261;SDS011;1643;47.746;9.000;2022-11-15T06:09:37;5.47;;;4.50;;
3261;SDS011;1643;47.746;9.000;2022-11-15T06:12:03;5.40;;;4.07;;
3261;SDS011;1643;47.746;9.000;2022-11-15T06:14:29;9.90;;;4.97;;
3261;SDS011;1643;47.746;9.000;2022-11-15T06:16:55;5.57;;;4.70;;
3261;SDS011;1643;47.746;9.000;2022-11-15T06:19:21;3.93;;;3.53;;
3261;SDS011;1643;47.746;9.000;2022-11-15T06:21:47;4.43;;;3.93;;
3261;SDS011;1643;47.746;9.000;2022-11-15T06:24:13;6.40;;;4.13;;
3261;SDS011;1643;47.746;9.000;2022-11-15T06:26:39;12.73;;;6.50;;
3261;SDS011;1643;47.746;9.000;2022-11-15T06:29:05;8.53;;;7.63;;
3261;SDS011;1643;47.746;9.000;2022-11-15T06:31:31;14.70;;;6.73;;
3261;SDS011;1643;47.746;9.000;2022-11-15T06:33:57;10.17;;;5.13;;
3261;SDS011;1643;47.746;9.000;2022-11-15T06:36:23;7.27;;;4.53;;
3261;SDS011;1643;47.746;9.000;2022-11-15T06:38:49;4.63;;;4.13;;
3261;SDS011;1643;47.746;9.000;2022-11-15T06:41:15;5.50;;;4.60;;
3261;SDS011;1643;47.746;9.000;2022-11-15T06:43:42;6.00;;;4.23;;
3261;SDS011;1643;47.746;9.000;2022-11-15T06:46:08;10.03;;;5.30;;
3261;SDS011;1643;47.746;9.000;2022-11-15T06:48:35;14.80;;;5.60;;
3261;SDS011;1643;47.746;9.000;2022-11-15T06:51:02;6.10;;;4.60;;
3261;SDS011;1643;47.746;9.000;2022-11-15T06:53:29;5.87;;;4.73;;
3261;SDS011;1643;47.746;9.000;2022-11-15T06:56:02;10.10;;;6.80;;
3261;SDS011;1643;47.746;9.000;2022-11-15T06:58:28;20.40;;;9.17;;
3261;SDS011;1643;47.746;9.000;2022-11-15T07:00:58;20.20;;;9.30;;
3261;SDS011;1643;47.746;9.000;2022-11-15T07:03:24;14.80;;;8.37;;
3261;SDS011;1643;47.746;9.000;2022-11-15T07:05:51;17.87;;;7.27;;
3261;SDS011;1643;47.746;9.000;2022-11-15T07:08:18;24.23;;;6.53;;
3261;SDS011;1643;47.746;9.000;2022-11-15T07:10:44;26.93;;;6.37;;
3261;SDS011;1643;47.746;9.000;2022-11-15T07:13:10;7.37;;;4.70;;
3261;SDS011;1643;47.746;9.000;2022-11-15T07:15:36;6.20;;;4.90;;
3261;SDS011;1643;47.746;9.000;2022-11-15T07:18:02;7.47;;;5.10;;
3261;SDS011;1643;47.746;9.000;2022-11-15T07:20:28;5.77;;;4.87;;
3261;SDS011;1643;47.746;9.000;2022-11-15T07:23:01;10.30;;;5.60;;
3261;SDS011;1643;47.746;9.000;2022-11-15T07:25:28;6.50;;;4.87;;
3261;SDS011;1643;47.746;9.000;2022-11-15T07:27:55;12.13;;;6.13;;
3261;SDS011;1643;47.746;9.000;2022-11-15T07:30:21;9.70;;;5.83;;
3261;SDS011;1643;47.746;9.000;2022-11-15T07:32:47;7.40;;;5.70;;
3261;SDS011;1643;47.746;9.000;2022-11-15T07:35:17;8.00;;;6.10;;
3261;SDS011;1643;47.746;9.000;2022-11-15T07:37:43;5.67;;;4.60;;
3261;SDS011;1643;47.746;9.000;2022-11-15T07:40:09;6.80;;;5.27;;
3261;SDS011;1643;47.746;9.000;2022-11-15T07:42:35;6.97;;;5.10;;
3261;SDS011;1643;47.746;9.000;2022-11-15T07:45:21;6.87;;;5.30;;
3261;SDS011;1643;47.746;9.000;2022-11-15T07:47:48;5.67;;;4.53;;
3261;SDS011;1643;47.746;9.000;2022-11-15T07:50:14;5.67;;;4.50;;
3261;SDS011;1643;47.746;9.000;2022-11-15T07:52:40;6.53;;;5.30;;
3261;SDS011;1643;47.746;9.000;2022-11-15T07:55:07;6.20;;;4.80;;
3261;SDS011;1643;47.746;9.000;2022-11-15T07:57:33;6.60;;;5.57;;
3261;SDS011;1643;47.746;9.000;2022-11-15T07:59:59;6.90;;;5.70;;
3261;SDS011;1643;47.746;9.000;2022-11-15T08:02:25;6.47;;;5.83;;
3261;SDS011;1643;47.746;9.000;2022-11-15T08:04:51;8.37;;;6.37;;
3261;SDS011;1643;47.746;9.000;2022-11-15T08:07:17;9.30;;;6.17;;
3261;SDS011;1643;47.746;9.000;2022-11-15T08:09:43;7.90;;;5.83;;
3261;SDS011;1643;47.746;9.000;2022-11-15T08:12:09;8.13;;;6.67;;
3261;SDS011;1643;47.746;9.000;2022-11-15T08:14:35;6.93;;;5.53;;
3261;SDS011;1643;47.746;9.000;2022-11-15T08:17:01;10.67;;;6.70;;
3261;SDS011;1643;47.746;9.000;2022-11-15T08:19:27;10.60;;;6.53;;
3261;SDS011;1643;47.746;9.000;2022-11-15T08:21:53;9.73;;;7.07;;
3261;SDS011;1643;47.746;9.000;2022-11-15T08:24:19;7.93;;;6.27;;
3261;SDS011;1643;47.746;9.000;2022-11-15T08:26:45;8.20;;;6.17;;
3261;SDS011;1643;47.746;9.000;2022-11-15T08:29:12;7.37;;;6.00;;
3261;SDS011;1643;47.746;9.000;2022-11-15T08:31:38;9.37;;;6.30;;
3261;SDS011;1643;47.746;9.000;2022-11-15T08:34:04;10.03;;;6.43;;
3261;SDS011;1643;47.746;9.000;2022-11-15T08:36:30;7.03;;;5.43;;
3261;SDS011;1643;47.746;9.000;2022-11-15T08:38:56;8.00;;;6.50;;
3261;SDS011;1643;47.746;9.000;2022-11-15T08:41:26;7.03;;;5.80;;
3261;SDS011;1643;47.746;9.000;2022-11-15T08:43:53;8.57;;;6.07;;
3261;SDS011;1643;47.746;9.000;2022-11-15T08:46:19;6.93;;;6.30;;
3261;SDS011;1643;47.746;9.000;2022-11-15T08:48:45;10.40;;;6.33;;
3261;SDS011;1643;47.746;9.000;2022-11-15T08:51:11;16.47;;;8.57;;
3261;SDS011;1643;47.746;9.000;2022-11-15T08:53:37;24.47;;;8.67;;
3261;SDS011;1643;47.746;9.000;2022-11-15T08:56:06;8.53;;;6.63;;
3261;SDS011;1643;47.746;9.000;2022-11-15T08:58:33;10.90;;;6.83;;
3261;SDS011;1643;47.746;9.000;2022-11-15T09:00:59;9.70;;;6.70;;
3261;SDS011;1643;47.746;9.000;2022-11-15T09:03:25;7.67;;;6.20;;
3261;SDS011;1643;47.746;9.000;2022-11-15T09:05:54;8.07;;;6.40;;
3261;SDS011;1643;47.746;9.000;2022-11-15T09:08:20;14.03;;;8.50;;
3261;SDS011;1643;47.746;9.000;2022-11-15T09:10:46;14.27;;;8.30;;
3261;SDS011;1643;47.746;9.000;2022-11-15T09:13:12;15.80;;;7.80;;
3261;SDS011;1643;47.746;9.000;2022-11-15T09:15:38;10.07;;;7.53;;
3261;SDS011;1643;47.746;9.000;2022-11-15T09:18:05;11.53;;;8.43;;
3261;SDS011;1643;47.746;9.000;2022-11-15T09:20:31;9.70;;;7.10;;
3261;SDS011;1643;47.746;9.000;2022-11-15T09:23:00;8.53;;;6.23;;
3261;SDS011;1643;47.746;9.000;2022-11-15T09:25:26;7.87;;;5.77;;
3261;SDS011;1643;47.746;9.000;2022-11-15T09:27:52;8.70;;;6.60;;
3261;SDS011;1643;47.746;9.000;2022-11-15T09:30:18;10.00;;;6.67;;
3261;SDS011;1643;47.746;9.000;2022-11-15T09:32:44;10.27;;;6.50;;
3261;SDS011;1643;47.746;9.000;2022-11-15T09:35:10;9.07;;;6.73;;
3261;SDS011;1643;47.746;9.000;2022-11-15T09:37:36;8.70;;;6.53;;
3261;SDS011;1643;47.746;9.000;2022-11-15T09:40:02;9.60;;;6.53;;
3261;SDS011;1643;47.746;9.000;2022-11-15T09:45:31;10.53;;;7.63;;
3261;SDS011;1643;47.746;9.000;2022-11-15T09:50:31;9.30;;;7.57;;
3261;SDS011;1643;47.746;9.000;2022-11-15T09:52:59;8.97;;;7.00;;
3261;SDS011;1643;47.746;9.000;2022-11-15T09:55:30;8.80;;;6.67;;
3261;SDS011;1643;47.746;9.000;2022-11-15T09:58:03;8.03;;;6.70;;
3261;SDS011;1643;47.746;9.000;2022-11-15T10:00:38;10.70;;;7.80;;
3261;SDS011;1643;47.746;9.000;2022-11-15T10:05:40;10.73;;;7.93;;
3261;SDS011;1643;47.746;9.000;2022-11-15T10:08:12;9.20;;;7.70;;
3261;SDS011;1643;47.746;9.000;2022-11-15T10:10:40;7.80;;;6.63;;
3261;SDS011;1643;47.746;9.000;2022-11-15T10:13:13;10.83;;;7.70;;
3261;SDS011;1643;47.746;9.000;2022-11-15T10:15:42;11.03;;;7.67;;
3261;SDS011;1643;47.746;9.000;2022-11-15T10:18:28;9.57;;;7.63;;
3261;SDS011;1643;47.746;9.000;2022-11-15T10:20:58;9.30;;;7.47;;
3261;SDS011;1643;47.746;9.000;2022-11-15T10:23:24;12.03;;;7.80;;
3261;SDS011;1643;47.746;9.000;2022-11-15T10:25:51;9.43;;;7.50;;
3261;SDS011;1643;47.746;9.000;2022-11-15T10:28:28;8.90;;;7.30;;
3261;SDS011;1643;47.746;9.000;2022-11-15T10:30:55;10.03;;;7.90;;
3261;SDS011;1643;47.746;9.000;2022-11-15T10:35:47;11.80;;;7.43;;
3261;SDS011;1643;47.746;9.000;2022-11-15T10:38:13;10.40;;;8.23;;
3261;SDS011;1643;47.746;9.000;2022-11-15T10:40:40;12.07;;;8.00;;
3261;SDS011;1643;47.746;9.000;2022-11-15T10:45:36;17.80;;;11.87;;
3261;SDS011;1643;47.746;9.000;2022-11-15T10:48:21;12.83;;;9.57;;
3261;SDS011;1643;47.746;9.000;2022-11-15T10:50:48;13.30;;;8.70;;
3261;SDS011;1643;47.746;9.000;2022-11-15T10:55:55;10.67;;;8.10;;
3261;SDS011;1643;47.746;9.000;2022-11-15T10:58:29;12.03;;;8.70;;
3261;SDS011;1643;47.746;9.000;2022-11-15T11:00:56;11.13;;;8.10;;
3261;SDS011;1643;47.746;9.000;2022-11-15T11:03:35;11.53;;;8.60;;
3261;SDS011;1643;47.746;9.000;2022-11-15T11:08:30;10.17;;;8.07;;
3261;SDS011;1643;47.746;9.000;2022-11-15T11:10:58;11.33;;;7.93;;
3261;SDS011;1643;47.746;9.000;2022-11-15T11:13:25;12.20;;;8.87;;
3261;SDS011;1643;47.746;9.000;2022-11-15T11:19:10;9.40;;;7.20;;
3261;SDS011;1643;47.746;9.000;2022-11-15T11:21:14;9.80;;;8.13;;
3261;SDS011;1643;47.746;9.000;2022-11-15T11:23:59;12.47;;;8.70;;
3261;SDS011;1643;47.746;9.000;2022-11-15T11:26:32;9.37;;;7.90;;
3261;SDS011;1643;47.746;9.000;2022-11-15T11:34:20;10.57;;;7.90;;
3261;SDS011;1643;47.746;9.000;2022-11-15T11:39:51;14.77;;;10.93;;
3261;SDS011;1643;47.746;9.000;2022-11-15T11:45:02;11.60;;;8.77;;
3261;SDS011;1643;47.746;9.000;2022-11-15T11:47:31;14.63;;;9.30;;
3261;SDS011;1643;47.746;9.000;2022-11-15T11:50:02;16.27;;;9.47;;
3261;SDS011;1643;47.746;9.000;2022-11-15T12:00:21;14.40;;;10.33;;
3261;SDS011;1643;47.746;9.000;2022-11-15T12:03:01;12.43;;;9.53;;
3261;SDS011;1643;47.746;9.000;2022-11-15T12:05:42;13.03;;;10.17;;
3261;SDS011;1643;47.746;9.000;2022-11-15T12:10:37;13.00;;;8.93;;
3261;SDS011;1643;47.746;9.000;2022-11-15T12:13:36;9.30;;;8.00;;
3261;SDS011;1643;47.746;9.000;2022-11-15T12:16:01;9.83;;;7.80;;
3261;SDS011;1643;47.746;9.000;2022-11-15T12:18:29;10.73;;;7.90;;
3261;SDS011;1643;47.746;9.000;2022-11-15T12:21:06;10.87;;;8.70;;
3261;SDS011;1643;47.746;9.000;2022-11-15T12:23:41;9.73;;;7.27;;
3261;SDS011;1643;47.746;9.000;2022-11-15T12:26:17;9.70;;;7.80;;
3261;SDS011;1643;47.746;9.000;2022-11-15T12:28:49;11.67;;;7.87;;
3261;SDS011;1643;47.746;9.000;2022-11-15T12:31:18;13.80;;;9.40;;
3261;SDS011;1643;47.746;9.000;2022-11-15T12:33:47;12.80;;;8.30;;
3261;SDS011;1643;47.746;9.000;2022-11-15T12:38:55;9.00;;;6.70;;
3261;SDS011;1643;47.746;9.000;2022-11-15T12:41:43;8.20;;;6.23;;
3261;SDS011;1643;47.746;9.000;2022-11-15T12:44:12;8.17;;;6.67;;
3261;SDS011;1643;47.746;9.000;2022-11-15T12:49:09;9.23;;;7.60;;
3261;SDS011;1643;47.746;9.000;2022-11-15T13:02:23;6.90;;;5.83;;
3261;SDS011;1643;47.746;9.000;2022-11-15T13:04:51;5.80;;;5.10;;
3261;SDS011;1643;47.746;9.000;2022-11-15T13:22:51;10.90;;;6.60;;
3261;SDS011;1643;47.746;9.000;2022-11-15T13:27:52;6.83;;;6.07;;
3261;SDS011;1643;47.746;9.000;2022-11-15T13:30:23;8.83;;;6.40;;
3261;SDS011;1643;47.746;9.000;2022-11-15T13:32:50;8.40;;;6.10;;
3261;SDS011;1643;47.746;9.000;2022-11-15T13:35:20;7.57;;;5.77;;
3261;SDS011;1643;47.746;9.000;2022-11-15T13:37:47;7.17;;;6.43;;
3261;SDS011;1643;47.746;9.000;2022-11-15T13:40:29;8.10;;;6.70;;
3261;SDS011;1643;47.746;9.000;2022-11-15T13:42:59;9.87;;;7.30;;
3261;SDS011;1643;47.746;9.000;2022-11-15T13:45:39;9.00;;;7.87;;
3261;SDS011;1643;47.746;9.000;2022-11-15T13:48:05;12.60;;;7.87;;
3261;SDS011;1643;47.746;9.000;2022-11-15T13:50:33;12.53;;;8.30;;
3261;SDS011;1643;47.746;9.000;2022-11-15T13:53:01;7.73;;;6.93;;
3261;SDS011;1643;47.746;9.000;2022-11-15T13:55:29;11.30;;;7.20;;
3261;SDS011;1643;47.746;9.000;2022-11-15T13:57:58;7.93;;;6.30;;
3261;SDS011;1643;47.746;9.000;2022-11-15T14:00:30;8.00;;;7.00;;
3261;SDS011;1643;47.746;9.000;2022-11-15T14:03:03;7.70;;;6.60;;
3261;SDS011;1643;47.746;9.000;2022-11-15T14:05:31;8.17;;;6.33;;
3261;SDS011;1643;47.746;9.000;2022-11-15T14:10:32;9.60;;;7.20;;
3261;SDS011;1643;47.746;9.000;2022-11-15T14:12:59;10.67;;;7.07;;
3261;SDS011;1643;47.746;9.000;2022-11-15T14:17:54;7.57;;;6.60;;
3261;SDS011;1643;47.746;9.000;2022-11-15T14:22:53;8.97;;;7.27;;
3261;SDS011;1643;47.746;9.000;2022-11-15T14:25:20;8.70;;;6.93;;
3261;SDS011;1643;47.746;9.000;2022-11-15T14:30:31;12.63;;;9.00;;
3261;SDS011;1643;47.746;9.000;2022-11-15T14:32:57;23.40;;;13.90;;
3261;SDS011;1643;47.746;9.000;2022-11-15T14:35:23;21.27;;;14.23;;
3261;SDS011;1643;47.746;9.000;2022-11-15T14:37:49;20.37;;;13.23;;
3261;SDS011;1643;47.746;9.000;2022-11-15T14:40:17;17.33;;;12.20;;
3261;SDS011;1643;47.746;9.000;2022-11-15T14:42:44;18.53;;;11.73;;
3261;SDS011;1643;47.746;9.000;2022-11-15T14:45:17;12.33;;;8.77;;
3261;SDS011;1643;47.746;9.000;2022-11-15T14:47:43;9.53;;;7.63;;
3261;SDS011;1643;47.746;9.000;2022-11-15T14:50:13;7.40;;;6.00;;
3261;SDS011;1643;47.746;9.000;2022-11-15T14:52:39;8.07;;;6.20;;
3261;SDS011;1643;47.746;9.000;2022-11-15T14:55:16;6.20;;;5.57;;
3261;SDS011;1643;47.746;9.000;2022-11-15T14:57:43;7.17;;;5.97;;
3261;SDS011;1643;47.746;9.000;2022-11-15T15:00:10;7.87;;;5.53;;
3261;SDS011;1643;47.746;9.000;2022-11-15T15:02:36;8.30;;;5.87;;
3261;SDS011;1643;47.746;9.000;2022-11-15T15:05:16;6.40;;;5.57;;
3261;SDS011;1643;47.746;9.000;2022-11-15T15:07:42;9.47;;;6.60;;
3261;SDS011;1643;47.746;9.000;2022-11-15T15:10:08;7.43;;;5.97;;
3261;SDS011;1643;47.746;9.000;2022-11-15T15:12:34;6.47;;;5.77;;
3261;SDS011;1643;47.746;9.000;2022-11-15T15:15:00;6.60;;;5.90;;
3261;SDS011;1643;47.746;9.000;2022-11-15T15:17:26;6.90;;;5.80;;
3261;SDS011;1643;47.746;9.000;2022-11-15T15:19:52;7.67;;;6.83;;
3261;SDS011;1643;47.746;9.000;2022-11-15T15:22:19;8.70;;;7.37;;
3261;SDS011;1643;47.746;9.000;2022-11-15T15:24:47;9.83;;;7.77;;
3261;SDS011;1643;47.746;9.000;2022-11-15T15:27:13;13.00;;;8.63;;
3261;SDS011;1643;47.746;9.000;2022-11-15T15:29:39;11.97;;;9.57;;
3261;SDS011;1643;47.746;9.000;2022-11-15T15:32:05;12.83;;;9.80;;
3261;SDS011;1643;47.746;9.000;2022-11-15T15:34:32;12.20;;;9.47;;
3261;SDS011;1643;47.746;9.000;2022-11-15T15:39:44;18.03;;;12.57;;
3261;SDS011;1643;47.746;9.000;2022-11-15T15:42:10;14.30;;;10.77;;
3261;SDS011;1643;47.746;9.000;2022-11-15T15:44:36;14.10;;;10.00;;
3261;SDS011;1643;47.746;9.000;2022-11-15T15:47:01;14.87;;;11.00;;
3261;SDS011;1643;47.746;9.000;2022-11-15T15:49:27;17.80;;;10.60;;
3261;SDS011;1643;47.746;9.000;2022-11-15T15:51:53;12.73;;;9.77;;
3261;SDS011;1643;47.746;9.000;2022-11-15T15:54:19;9.87;;;8.77;;
3261;SDS011;1643;47.746;9.000;2022-11-15T15:56:45;12.43;;;9.33;;
3261;SDS011;1643;47.746;9.000;2022-11-15T15:59:11;12.30;;;9.40;;
3261;SDS011;1643;47.746;9.000;2022-11-15T16:01:38;11.40;;;10.00;;
3261;SDS011;1643;47.746;9.000;2022-11-15T16:04:04;11.70;;;9.60;;
3261;SDS011;1643;47.746;9.000;2022-11-15T16:06:38;10.57;;;9.43;;
3261;SDS011;1643;47.746;9.000;2022-11-15T16:09:05;12.13;;;9.03;;
3261;SDS011;1643;47.746;9.000;2022-11-15T16:11:31;13.10;;;7.70;;
3261;SDS011;1643;47.746;9.000;2022-11-15T16:13:57;10.00;;;8.60;;
3261;SDS011;1643;47.746;9.000;2022-11-15T16:16:23;9.23;;;7.50;;
3261;SDS011;1643;47.746;9.000;2022-11-15T16:18:49;11.70;;;7.37;;
3261;SDS011;1643;47.746;9.000;2022-11-15T16:21:15;9.97;;;8.47;;
3261;SDS011;1643;47.746;9.000;2022-11-15T16:23:41;9.83;;;7.67;;
3261;SDS011;1643;47.746;9.000;2022-11-15T16:26:14;9.80;;;7.60;;
3261;SDS011;1643;47.746;9.000;2022-11-15T16:28:43;9.73;;;8.07;;
3261;SDS011;1643;47.746;9.000;2022-11-15T16:31:09;9.90;;;7.40;;
3261;SDS011;1643;47.746;9.000;2022-11-15T16:33:35;10.90;;;7.77;;
3261;SDS011;1643;47.746;9.000;2022-11-15T16:36:02;6.80;;;6.10;;
3261;SDS011;1643;47.746;9.000;2022-11-15T16:38:28;11.80;;;6.97;;
3261;SDS011;1643;47.746;9.000;2022-11-15T16:40:54;7.40;;;6.50;;
3261;SDS011;1643;47.746;9.000;2022-11-15T16:43:20;9.30;;;6.70;;
3261;SDS011;1643;47.746;9.000;2022-11-15T16:45:48;10.13;;;6.17;;
3261;SDS011;1643;47.746;9.000;2022-11-15T16:48:20;8.57;;;6.53;;
3261;SDS011;1643;47.746;9.000;2022-11-15T16:50:47;8.03;;;6.90;;
3261;SDS011;1643;47.746;9.000;2022-11-15T16:53:13;9.17;;;6.40;;
3261;SDS011;1643;47.746;9.000;2022-11-15T16:55:39;8.50;;;6.63;;
3261;SDS011;1643;47.746;9.000;2022-11-15T16:58:05;9.87;;;7.13;;
3261;SDS011;1643;47.746;9.000;2022-11-15T17:00:31;11.70;;;8.23;;
3261;SDS011;1643;47.746;9.000;2022-11-15T17:02:57;10.10;;;7.80;;
3261;SDS011;1643;47.746;9.000;2022-11-15T17:05:23;10.83;;;8.63;;
3261;SDS011;1643;47.746;9.000;2022-11-15T17:07:51;9.00;;;7.90;;
3261;SDS011;1643;47.746;9.000;2022-11-15T17:10:18;10.80;;;8.30;;
3261;SDS011;1643;47.746;9.000;2022-11-15T17:12:44;11.90;;;9.50;;
3261;SDS011;1643;47.746;9.000;2022-11-15T17:15:10;9.83;;;8.83;;
3261;SDS011;1643;47.746;9.000;2022-11-15T17:17:36;11.10;;;8.73;;